Latest Observation

40 Stations

15 Minute Data | America/Los_Angeles
as of 12/2/22 4:04 AM PST
Station Date Time Storm Total (In) Temp (°F) RH (%) Dew Pt (°F) Wind Dir (°) Wind Spd (mph) Wind Gust (mph) WindChill (°F) Solar Rad (W/m2) Latest Rain (In) Daily Rain (In) Daily Max Temp (°F) Daily Min Temp (°F) Daily Max Wind (mph) Daily ETo (in) Daily Leaf Wet Hrs (hrs)
Colony 1 12/2/22 0400 0.81 34.5   15.7 99   36 34.1   3.8 NE | 56 0.5   6.2 2.0   9.2 - 0   0 0.00 0.01 36.0   14.3 33.2   11.5 2.9   8.6 0.000   0.001 -
Colony 2 12/2/22 0400 0.74 31.7   17.9 97   34 31.0   6.5 NE | 47 1.7   6.1 2.6   11.0 - 0   0 0.00 0.01 35.5   14.3 31.5   13.0 3.7   9.8 0.000   0.001 -
Gill Ranch 12/2/22 0400 1.01 35.2   15.5 93   33 33.4   4.1 ENE | 73 2.7   3.8 5.3   5.8 - 0   0 0.00 0.00 36.9   14.2 32.9   12.7 6.1   8.7 0.000   0.001 -
5 Wells 12/2/22 0400 0.81 34.2   15.4 100   39 34.2   2.4 ENE | 72 2.7   4.7 4.3   9.8 - 2   2 0.00 0.01 34.5   15.1 32.4   9.9 4.4   9.7 0.000   0.000 -
Simmerhorn 12/2/22 0400 - 34.5   14.9 100   36 34.5   3.0 - - - - - - - 36.9   12.5 32.2   10.5 - - -
Galt-East 12/2/22 0400 0.54 31.7   17.9 100   33 31.6   7.3 N | 357 0.2   5.2 1.7   10.0 - 0   0 0.00 0.00 35.9   14.2 31.3   11.4 3.6   11.4 0.000   0.000 -
Borden Hills 12/2/22 0400 0.95 33.5   16.9 96   32 32.4   6.2 ENE | 70 3.4   4.5 4.2   10.1 30.5 0   0 0.00 0.00 37.1   13.7 33.3   9.5 5.1   10.7 0.000   0.002 -
Sierra Loma-L27 12/2/22 0400 0.95 33.9   15.8 96   31 33.0   5.6 ENE | 68 2.0   4.5 3.8   7.0 - - 0.00 0.00 37.5   12.6 33.7   9.0 5.3   8.1 - -
Lone Oak-L28 12/2/22 0400 0.97 29.4   18.5 98   28 28.8   9.6 ESE | 105 1.7   4.0 3.2   7.6 - - 0.00 0.00 32.7   15.4 27.9   8.4 5.4   9.3 - -
Lockeford 12/2/22 0400 0.99 30.5   18.0 93   25 28.9   9.8 ENE | 76 0.3   5.2 1.7   9.4 - 1   0 0.00 0.00 35.5   13.7 29.9   11.3 3.1   8.4 0.000   0.001 1.9   1.9
Kost Rd 12/2/22 0400 0.61 31.6   16.2 100   28 31.6   7.8 NNE | 21 1.1   2.5 2.1   7.5 - 0   0 0.00 0.01 34.1   14.1 30.2   11.0 2.7   7.8 0.000   0.000 -
Thornton 12/2/22 0400 0.57 28.3   18.5 90   23 25.8   10.9 N | 0 0.0   4.1 0.0   7.4 - 0   0 0.00 0.00 31.0   16.5 27.6   11.8 0.0   10.1 0.000   0.000 4.0   4.0
Lodi (LangeTwins) 12/2/22 0400 0.66 29.9   18.4 100   30 29.9   9.2 N | 0 0.0   6.2 0.0   10.5 - 0   0 0.00 0.00 32.5   15.9 29.0   11.2 0.0   15.8 0.000   0.000 0.9   0.9
Gilbeau Ranch 12/2/22 0400 0.83 32.4   16.8 97   36 31.8   4.6 ENE | 59 1.7   6.3 2.1   10.4 - 0   0 0.00 0.01 35.0   14.3 32.2   9.9 3.7   8.8 0.000   0.001 -
Galt West 12/2/22 0400 0.56 31.8   15.7 97   27 31.0   7.1 NE | 54 1.8   3.5 3.4   6.3 - 0   0 0.00 0.00 32.8   15.4 28.2   14.0 3.4   8.3 0.000   0.000 -
Valley Oak 12/2/22 0400 0.60 26.5   21.0 100   35 26.5   9.8 NNE | 13 0.9   3.2 1.7   6.0 - 0   0 0.00 0.00 30.3   17.4 26.0   12.3 3.3   5.8 0.000   0.000 -
Guard Rd (Lodi WSW) 12/2/22 0400 0.61 27.7   16.3 95   17 26.5   11.3 E | 80 1.2   0.0 2.1   1.8 - 0   0 0.00 0.00 35.4   9.7 27.3   9.6 3.1   3.3 0.000   0.000 0.0   0.0
Linden 12/2/22 0400 1.16 31.4   17.4 99   33 31.1   7.0 E | 86 0.4   3.4 2.3   5.7 - - - 0.00 36.8   12.0 29.7   13.9 2.3   6.4 - 4.0   4.0
DeVries Road-North 12/2/22 0400 0.60 32.9   14.3 100   28 32.8   5.8 NE | 49 2.1   2.6 4.1   3.7 - 0   0 0.00 0.00 35.2   12.1 30.4   9.0 4.1   7.0 0.000   0.000 -
Acampo 12/2/22 0400 0.62 29.8   18.0 100   37 29.8   6.0 N | 0 0.0   4.3 0.0   8.8 - 0   0 - 0.00 33.8   14.2 29.6   11.2 2.4   9.4 0.000   0.000 2.2   2.2
Acampo (Woodbridge) 12/2/22 0400 0.69 34.0   13.4 100   30 33.9   4.3 ENE | 70 1.6   5.3 2.9   7.3 - 0   0 0.00 0.00 37.0   10.6 33.2   8.0 5.5   6.6 0.000   0.001 -
Lodi West 12/1/22 2115 0.60 40.7   4.6 87   15 37.2   0.4 SW | 228 1.3   0.3 3.5   0.4 - 0   0 0.00 0.60 49.6   12.9 39.3   10.3 19.8   13.2 0.011   0.039 7.3   5.5
Teresi-Alpine Rd (East Lodi) 12/2/22 0400 0.83 57.1   0.0 3   0 -23.2   0.0 SSE | 153 1.3   4.2 3.2   6.5 - 0   0 0.00 0.00 57.1   0.0 57.1   0.0 3.7   6.0 0.005   0.001 -
Victor - N (Katusha) 12/2/22 0400 - 32.6   15.4 97   35 31.9   4.0 N | 0 0.0   5.7 0.0   10.8 - - 0.00 0.00 35.5   12.9 32.2   8.3 2.1   8.7 - -
Live Oak 12/2/22 0400 0.78 30.8   17.0 100   33 30.8   6.7 NE | 38 2.0   2.3 3.3   5.3 - 0   0 0.00 0.01 34.3   13.8 30.3   8.3 3.3   5.3 0.000   0.000 -
Sheldon 12/2/22 0400 0.60 30.5   19.6 99   38 30.2   7.0 N | 0 0.0   6.0 0.0   11.8 - 0   0 0.00 0.00 32.8   17.4 30.2   13.8 3.8   8.0 0.000   0.001 2.1   2.1
Sloughhouse 12/2/22 0400 0.75 30.8   20.2 100   42 30.8   6.1 N | 0 0.0   8.9 0.0   15.8 - 0   0 0.00 0.00 34.5   16.7 29.3   12.8 5.8   10.1 0.000   0.001 -
Utter - Wilson 12/2/22 0400 0.42 28.8   17.1 100   24 28.8   10.1 N | 1 0.5   4.8 2.1   6.6 - 0   0 0.00 0.00 32.2   15.1 28.2   16.3 2.9   8.1 0.000   0.000 -
Clarksburg 12/2/22 0400 0.41 32.9   14.1 94   27 31.3   5.1 NE | 44 1.9   6.3 3.4   9.6 - 0   0 0.00 0.00 35.9   11.6 30.9   11.5 3.4   9.7 0.000   0.001 -
Clarksburg-3A2 12/2/22 0400 0.42 30.3   16.2 99   29 30.0   7.3 N | 354 1.1   9.6 2.1   13.9 - 0   0 0.00 0.00 34.2   12.5 30.0   13.1 4.1   12.0 0.000   0.002 -
Gorter - Wilson 12/2/22 0400 0.42 29.7   15.7 100   23 29.7   9.0 NE | 50 1.1   5.0 1.7   7.8 - 0   0 0.00 0.00 31.1   14.7 27.0   14.9 2.6   6.9 0.000   0.000 -
Hood 12/2/22 0400 0.46 28.3   17.6 99   25 28.1   10.1 ENE | 75 0.3   5.0 1.1   8.4 - 0   0 0.00 0.00 32.0   14.5 27.0   14.5 3.1   6.4 0.000   0.000 -
Courtland-C3 12/2/22 0400 0.46 31.3   13.7 98   23 30.7   6.9 NE | 38 1.8   6.9 2.5   9.2 - - 0.00 0.00 35.9   9.2 28.3   13.8 3.6   8.8 - -
Pacific Fruit 12/2/22 0400 0.44 31.6   14.5 98   21 31.2   8.3 NNE | 32 1.6   4.1 2.7   6.3 - 0   0 0.00 0.00 34.4   11.9 27.5   14.8 3.6   5.6 0.000   0.000 -
Ryer Island South 12/2/22 0400 0.59 26.8   20.4 95   26 25.6   12.1 S | 178 0.1   4.6 0.7   8.2 - 0   0 0.00 0.00 40.5   7.0 26.5   16.8 3.4   5.9 0.000   0.000 1.7   1.7
Farmington (Mobley100) 12/2/22 0400 - 31.3   15.7 98   27 30.7   7.3 E | 91 0.1   2.8 1.2   7.4 - - - - 35.4   12.2 30.2   13.1 1.8   6.9 - -
Collegeville 12/2/22 0400 0.86 30.6   16.3 98   27 30.2   8.1 ESE | 110 0.2   3.7 1.3   7.7 - 0   0 0.00 0.00 34.3   13.4 30.2   9.3 1.4   8.9 0.000   0.000 -
Oakdale North (28 Mile Rd) 12/2/22 0400 - 30.7   15.9 97   23 30.0   8.7 N | 0 0.0   2.4 0.0   6.4 - - - - 34.5   12.4 30.6   13.2 2.1   6.2 - -
Escalon 12/2/22 0400 0.89 31.1   16.7 100   28 31.1   8.3 ENE | 78 0.0   3.0 0.6   7.2 - - 0.00 0.00 34.9   13.2 30.9   11.2 0.6   7.2 - 3.0   3.0
Claussen 12/2/22 0400 0.55 31.9   17.8 98   29 31.3   8.5 S | 191 1.0   3.4 2.6   7.1 - 0   0 0.00 0.00 41.5   9.4 31.3   7.4 5.7   4.0 0.000   0.000 -
Max     1.16 57.1 100 34.5 - 3.4 5.3 - 2 0.00 0.01 57.1 57.1 6.1 0.005 4.0
Avg     0.69 31.9 95 29.3 - 1.0 2.1 - 0 0.00 - - - - - -
Min     0.41 26.5 3 -23.2 - 0.0 0.0 - 0 0.00 0.00 30.3 26.0 0.0 0.000 0.0